Time;durP1;ratioP1;P1;durP2;ratioP2;P2;SDS_P1;SDS_P2;PMS_P1;PMS_P2;Temp;Humidity;BMP_temperature;BMP_pressure;BME280_temperature;BME280_humidity;BME280_pressure;Samples;Min_cycle;Max_cycle;Signal;HPM_P1;HPM_P2
2022/04/13 00:01:55;;;;;;;9.90;3.90;;;;;;;8.22;65.05;100615.13;104714;1277;71559;-73
2022/04/13 00:04:22;;;;;;;8.60;3.60;;;;;;;8.15;65.31;100615.11;104788;1274;72967;-72
2022/04/13 00:06:52;;;;;;;5.70;3.50;;;;;;;8.09;65.65;100619.05;104694;1275;61301;-70
2022/04/13 00:09:19;;;;;;;9.60;5.60;;;;;;;8.03;65.76;100622.13;104814;1274;61237;-72
2022/04/13 00:11:46;;;;;;;9.40;3.50;;;;;;;7.97;66.31;100619.10;104846;1274;75092;-72
2022/04/13 00:14:12;;;;;;;7.90;3.90;;;;;;;7.91;66.63;100616.21;104806;1274;61327;-73
2022/04/13 00:16:39;;;;;;;5.70;3.80;;;;;;;7.86;66.87;100616.95;104835;1274;73124;-72
2022/04/13 00:19:06;;;;;;;8.30;3.60;;;;;;;7.81;67.26;100613.43;104830;1274;61236;-72
2022/04/13 00:21:33;;;;;;;6.70;3.90;;;;;;;7.76;67.27;100614.89;104874;1274;61355;-72
2022/04/13 00:24:00;;;;;;;5.90;4.30;;;;;;;7.73;67.48;100616.77;104862;1274;74944;-72
2022/04/13 00:26:26;;;;;;;6.40;3.70;;;;;;;7.72;67.34;100614.09;104758;1275;71480;-71
2022/04/13 00:28:53;;;;;;;8.30;3.70;;;;;;;7.74;67.24;100612.60;104725;1277;70623;-71
2022/04/13 00:31:19;;;;;;;7.00;3.70;;;;;;;7.75;67.35;100613.27;104708;1277;61482;-72
2022/04/13 00:33:46;;;;;;;8.20;4.20;;;;;;;7.74;67.35;100608.98;104861;1274;61538;-73
2022/04/13 00:36:12;;;;;;;9.10;4.10;;;;;;;7.71;67.72;100608.45;104730;1274;76175;-72
2022/04/13 00:38:39;;;;;;;7.30;4.70;;;;;;;7.67;68.20;100606.33;104887;1274;61243;-73
2022/04/13 00:41:06;;;;;;;7.00;3.60;;;;;;;7.65;68.22;100605.66;104767;1274;73549;-71
2022/04/13 00:43:33;;;;;;;10.30;4.20;;;;;;;7.62;68.71;100605.95;104882;1274;61332;-71
2022/04/13 00:45:59;;;;;;;8.50;3.80;;;;;;;7.61;69.20;100606.64;104779;1274;61332;-72
2022/04/13 00:48:36;;;;;;;10.00;4.10;;;;;;;7.61;68.84;100608.58;104900;1274;76058;-72
2022/04/13 00:51:06;;;;;;;6.70;3.70;;;;;;;7.61;68.68;100611.55;104869;1274;71836;-70
2022/04/13 00:53:35;;;;;;;5.50;3.70;;;;;;;7.61;68.73;100609.26;104853;1275;73122;-72
2022/04/13 00:56:08;;;;;;;10.30;4.00;;;;;;;7.60;68.58;100607.96;104880;1274;61721;-71
2022/04/13 00:58:39;;;;;;;7.00;3.90;;;;;;;7.60;68.86;100611.25;104891;1274;61313;-71
2022/04/13 01:01:07;;;;;;;6.80;3.90;;;;;;;7.59;68.90;100611.29;104936;1274;76309;-70
2022/04/13 01:03:44;;;;;;;9.80;4.70;;;;;;;7.57;68.96;100607.95;104893;1274;70543;-72
2022/04/13 01:06:12;;;;;;;9.30;3.90;;;;;;;7.54;68.85;100608.08;104888;1274;72963;-72
2022/04/13 01:08:40;;;;;;;6.40;4.30;;;;;;;7.52;69.19;100608.80;104916;1274;61307;-69
2022/04/13 01:11:07;;;;;;;7.70;3.80;;;;;;;7.49;69.09;100609.75;104819;1274;61598;-71
2022/04/13 01:13:33;;;;;;;8.20;4.10;;;;;;;7.47;69.41;100609.80;104865;1274;76027;-72
2022/04/13 01:16:01;;;;;;;8.10;4.40;;;;;;;7.46;69.67;100614.65;104868;1274;71377;-70
2022/04/13 01:18:27;;;;;;;13.00;4.70;;;;;;;7.46;69.83;100617.61;104869;1274;74131;-69
2022/04/13 01:20:54;;;;;;;10.20;4.80;;;;;;;7.47;69.86;100619.51;104775;1276;61331;-69
2022/04/13 01:23:24;;;;;;;9.40;4.90;;;;;;;7.48;69.81;100615.73;104834;1274;61475;-69
2022/04/13 01:25:53;;;;;;;9.20;4.50;;;;;;;7.48;69.78;100616.77;104841;1276;74220;-72
2022/04/13 01:28:20;;;;;;;9.60;4.30;;;;;;;7.48;69.54;100622.55;104747;1274;72374;-70
2022/04/13 01:30:47;;;;;;;9.50;4.50;;;;;;;7.47;69.37;100621.39;104889;1274;73896;-68
2022/04/13 01:33:14;;;;;;;8.70;4.70;;;;;;;7.45;69.26;100620.91;104802;1274;61298;-72
2022/04/13 01:35:41;;;;;;;8.00;4.50;;;;;;;7.43;69.17;100627.95;104842;1274;61301;-73
2022/04/13 01:38:07;;;;;;;11.30;5.30;;;;;;;7.41;69.34;100627.68;104817;1274;76104;-72
2022/04/13 01:40:34;;;;;;;12.60;4.30;;;;;;;7.37;69.57;100623.14;104892;1274;71375;-69
2022/04/13 01:43:01;;;;;;;10.00;4.80;;;;;;;7.34;69.88;100620.80;104851;1274;73950;-72
2022/04/13 01:45:28;;;;;;;9.80;4.70;;;;;;;7.31;70.15;100623.57;104836;1274;62235;-72
2022/04/13 01:47:55;;;;;;;8.30;5.20;;;;;;;7.27;69.91;100625.75;104901;1274;61740;-72
2022/04/13 01:50:22;;;;;;;9.20;4.60;;;;;;;7.22;70.17;100628.67;104843;1274;61362;-71
2022/04/13 01:52:49;;;;;;;8.40;4.10;;;;;;;7.17;70.38;100628.13;104815;1274;73184;-72
2022/04/13 01:55:16;;;;;;;10.10;5.60;;;;;;;7.13;70.50;100623.65;104734;1274;74163;-74
2022/04/13 01:57:43;;;;;;;8.00;4.60;;;;;;;7.08;70.90;100626.74;104869;1274;61278;-73
2022/04/13 02:00:12;;;;;;;9.00;4.40;;;;;;;7.04;71.37;100627.63;104804;1277;63009;-73
2022/04/13 02:02:38;;;;;;;12.00;5.30;;;;;;;7.01;71.19;100628.77;104852;1274;74922;-73
2022/04/13 02:05:05;;;;;;;9.90;5.20;;;;;;;6.95;71.50;100626.98;104923;1274;71676;-70
2022/04/13 02:07:32;;;;;;;9.60;5.10;;;;;;;6.89;71.69;100625.77;104746;1277;73009;-72
2022/04/13 02:09:59;;;;;;;8.60;5.60;;;;;;;6.83;71.89;100624.70;104866;1274;61256;-70
2022/04/13 02:12:27;;;;;;;9.00;5.50;;;;;;;6.76;72.85;100620.98;104724;1277;61298;-72
2022/04/13 02:14:54;;;;;;;10.00;5.50;;;;;;;6.69;73.47;100623.79;104904;1274;74933;-71
2022/04/13 02:17:21;;;;;;;9.50;5.90;;;;;;;6.63;73.53;100618.78;104770;1274;72502;-70
2022/04/13 02:19:47;;;;;;;11.00;5.60;;;;;;;6.57;73.63;100617.42;104751;1274;73063;-72
2022/04/13 02:22:14;;;;;;;9.60;5.80;;;;;;;6.52;73.89;100615.27;104932;1274;61316;-72
2022/04/13 02:25:05;;;;;;;9.70;5.40;;;;;;;6.47;74.29;100617.86;104957;1274;62229;-71
2022/04/13 02:27:33;;;;;;;9.60;5.40;;;;;;;6.43;74.48;100615.41;104895;1274;73911;-72
2022/04/13 02:29:59;;;;;;;8.60;5.80;;;;;;;6.39;74.63;100615.67;104918;1274;71404;-73
2022/04/13 02:32:26;;;;;;;10.00;5.20;;;;;;;6.35;75.30;100614.65;104901;1274;74017;-70
2022/04/13 02:34:53;;;;;;;10.70;5.30;;;;;;;6.31;75.26;100610.94;104788;1275;62455;-72
2022/04/13 02:37:22;;;;;;;10.10;5.30;;;;;;;6.28;75.41;100611.61;104848;1274;61511;-71
2022/04/13 02:39:48;;;;;;;9.10;5.10;;;;;;;6.27;75.50;100609.92;104765;1275;73748;-70
2022/04/13 02:42:15;;;;;;;8.10;4.80;;;;;;;6.26;75.52;100610.92;104760;1274;71167;-73
2022/04/13 02:44:42;;;;;;;9.20;5.00;;;;;;;6.25;75.48;100606.61;104801;1276;75166;-72
2022/04/13 02:47:10;;;;;;;10.00;5.50;;;;;;;6.25;75.75;100607.53;104865;1274;62693;-70
2022/04/13 02:49:37;;;;;;;11.10;5.60;;;;;;;6.26;75.70;100605.73;104757;1275;61595;-75
2022/04/13 02:52:04;;;;;;;8.10;4.90;;;;;;;6.26;75.67;100609.32;104502;1274;494170;-70
2022/04/13 02:54:31;;;;;;;8.60;5.30;;;;;;;6.27;75.61;100606.84;104725;1275;71347;-71
2022/04/13 02:56:58;;;;;;;9.00;5.00;;;;;;;6.27;75.36;100605.41;104847;1274;73103;-68
2022/04/13 02:59:24;;;;;;;8.90;5.50;;;;;;;6.26;75.35;100604.75;104829;1274;62533;-70
2022/04/13 03:01:53;;;;;;;11.10;5.00;;;;;;;6.27;75.77;100606.67;104764;1274;61205;-72
2022/04/13 03:04:26;;;;;;;9.90;5.20;;;;;;;6.27;75.67;100606.11;104888;1274;74932;-68
2022/04/13 03:06:54;;;;;;;9.40;4.90;;;;;;;6.27;76.05;100611.37;104770;1276;71414;-71
2022/04/13 03:09:20;;;;;;;11.20;6.10;;;;;;;6.29;75.76;100612.20;104851;1274;73966;-69
2022/04/13 03:11:47;;;;;;;7.50;4.30;;;;;;;6.29;75.96;100612.02;104860;1274;61441;-70
2022/04/13 03:14:14;;;;;;;7.80;5.00;;;;;;;6.28;75.90;100608.61;104863;1274;61400;-72
2022/04/13 03:16:40;;;;;;;9.90;5.50;;;;;;;6.27;75.69;100612.78;104868;1274;61285;-72
2022/04/13 03:19:07;;;;;;;11.10;5.60;;;;;;;6.24;75.68;100616.21;104774;1276;71400;-70
2022/04/13 03:21:34;;;;;;;9.20;4.90;;;;;;;6.20;75.62;100614.85;104869;1274;61265;-71
2022/04/13 03:24:01;;;;;;;7.30;4.80;;;;;;;6.17;75.74;100613.02;104704;1275;61377;-71
2022/04/13 03:26:28;;;;;;;9.40;5.30;;;;;;;6.15;75.70;100612.06;104782;1274;61229;-69
2022/04/13 03:28:55;;;;;;;10.00;5.20;;;;;;;6.11;75.58;100608.14;104835;1274;75400;-73
2022/04/13 03:31:22;;;;;;;10.00;5.10;;;;;;;6.08;76.05;100606.03;104857;1274;72393;-71
2022/04/13 03:33:49;;;;;;;10.60;5.20;;;;;;;6.03;76.29;100605.80;104693;1274;72694;-73
2022/04/13 03:36:18;;;;;;;8.70;4.20;;;;;;;5.98;76.62;100605.05;104821;1274;62536;-73
2022/04/13 03:38:45;;;;;;;9.60;5.40;;;;;;;5.96;76.90;100611.22;104825;1274;61212;-71
2022/04/13 03:41:12;;;;;;;10.10;5.10;;;;;;;5.93;76.84;100611.41;104821;1277;75084;-72
2022/04/13 03:43:39;;;;;;;10.30;4.50;;;;;;;5.93;77.15;100611.46;104842;1274;71561;-70
2022/04/13 03:46:05;;;;;;;9.00;5.40;;;;;;;5.92;77.17;100614.34;104839;1274;73045;-74
2022/04/13 03:48:33;;;;;;;10.80;4.60;;;;;;;5.90;76.88;100614.14;104871;1274;61397;-71
2022/04/13 03:51:00;;;;;;;11.90;5.40;;;;;;;5.89;77.01;100619.37;104770;1277;61642;-70
2022/04/13 03:53:31;;;;;;;9.30;5.00;;;;;;;5.87;76.85;100624.84;104920;1274;75967;-69
2022/04/13 03:55:58;;;;;;;8.80;5.60;;;;;;;5.83;76.88;100621.66;104758;1274;71632;-74
2022/04/13 03:58:27;;;;;;;10.10;4.80;;;;;;;5.83;76.86;100624.56;104843;1274;74132;-73
2022/04/13 04:00:54;;;;;;;8.00;4.80;;;;;;;5.81;77.02;100632.63;104834;1274;62250;-71
2022/04/13 04:03:20;;;;;;;8.40;5.50;;;;;;;5.79;77.10;100629.84;104798;1276;61686;-72
2022/04/13 04:05:47;;;;;;;8.10;5.50;;;;;;;5.76;77.19;100631.14;104833;1274;61289;-72
2022/04/13 04:08:13;;;;;;;10.90;5.60;;;;;;;5.73;77.31;100637.05;104748;1275;61807;-72
2022/04/13 04:10:43;;;;;;;9.50;5.40;;;;;;;5.70;77.33;100643.98;104860;1274;73029;-72
2022/04/13 04:13:09;;;;;;;10.70;6.00;;;;;;;5.66;77.50;100645.38;104802;1274;61787;-71
2022/04/13 04:15:36;;;;;;;11.10;6.30;;;;;;;5.65;77.68;100654.48;104870;1274;61316;-75
2022/04/13 04:18:03;;;;;;;9.00;5.20;;;;;;;5.63;77.63;100654.62;104817;1274;75790;-69
2022/04/13 04:20:30;;;;;;;8.20;5.10;;;;;;;5.63;77.81;100654.30;104830;1274;72519;-72
2022/04/13 04:22:57;;;;;;;7.80;4.60;;;;;;;5.62;78.08;100653.48;104850;1274;72957;-71
2022/04/13 04:25:24;;;;;;;13.00;5.70;;;;;;;5.63;78.01;100654.12;104842;1274;61697;-71
2022/04/13 04:27:50;;;;;;;8.70;4.90;;;;;;;5.63;78.21;100653.73;104847;1274;62832;-69
2022/04/13 04:30:17;;;;;;;13.20;6.90;;;;;;;5.64;78.29;100647.33;104886;1274;61380;-71
2022/04/13 04:32:44;;;;;;;13.40;5.10;;;;;;;5.65;78.44;100650.95;104825;1274;71526;-72
2022/04/13 04:35:11;;;;;;;9.80;6.70;;;;;;;5.66;78.53;100650.17;104672;1275;71852;-69
2022/04/13 04:37:38;;;;;;;8.80;5.60;;;;;;;5.66;78.48;100648.17;104823;1274;61715;-74
2022/04/13 04:40:06;;;;;;;13.60;5.40;;;;;;;5.68;78.55;100652.25;104801;1274;61384;-71
2022/04/13 04:42:54;;;;;;;12.20;5.10;;;;;;;5.70;78.52;100653.29;104893;1274;76386;-74
2022/04/13 04:45:21;;;;;;;8.40;5.10;;;;;;;5.72;78.65;100656.04;104838;1274;72118;-72
2022/04/13 04:47:52;;;;;;;10.60;6.20;;;;;;;5.75;78.58;100654.24;104847;1274;74061;-70
2022/04/13 04:50:21;;;;;;;8.90;5.40;;;;;;;5.78;78.59;100652.20;104934;1272;61525;-71
2022/04/13 04:52:49;;;;;;;8.00;5.30;;;;;;;5.81;78.65;100653.81;105021;1274;61290;-70
2022/04/13 04:55:18;;;;;;;9.00;4.30;;;;;;;5.85;78.58;100656.11;104910;1274;74870;-71
2022/04/13 04:57:45;;;;;;;11.00;5.50;;;;;;;5.88;78.80;100652.86;104848;1274;70412;-69
2022/04/13 05:00:16;;;;;;;7.80;5.30;;;;;;;5.89;78.88;100655.30;104951;1274;73180;-73
2022/04/13 05:02:46;;;;;;;9.30;5.30;;;;;;;5.92;78.59;100657.19;104765;1274;61919;-73
2022/04/13 05:05:14;;;;;;;11.50;6.10;;;;;;;5.95;78.72;100663.59;104819;1274;61295;-69
2022/04/13 05:07:41;;;;;;;10.70;5.20;;;;;;;5.99;78.74;100658.98;104864;1274;74681;-69
2022/04/13 05:10:09;;;;;;;11.30;6.50;;;;;;;6.04;79.10;100660.06;104790;1276;71434;-73
2022/04/13 05:12:43;;;;;;;12.10;6.50;;;;;;;6.09;78.83;100659.94;104859;1274;73379;-70
2022/04/13 05:15:11;;;;;;;9.10;5.10;;;;;;;6.14;78.86;100659.10;104912;1274;61358;-70
2022/04/13 05:17:38;;;;;;;9.70;6.40;;;;;;;6.21;78.78;100659.37;104862;1274;61234;-73
2022/04/13 05:20:07;;;;;;;7.20;5.20;;;;;;;6.28;78.62;100659.95;104846;1274;74896;-72
2022/04/13 05:22:34;;;;;;;9.30;5.20;;;;;;;6.36;78.47;100665.29;104933;1274;72369;-72
2022/04/13 05:25:04;;;;;;;9.60;5.30;;;;;;;6.45;78.29;100673.40;104854;1274;73851;-71
2022/04/13 05:27:31;;;;;;;11.10;6.60;;;;;;;6.55;78.09;100676.80;104708;1275;62189;-70
2022/04/13 05:29:58;;;;;;;11.50;6.60;;;;;;;6.65;77.88;100677.59;104835;1274;62607;-73
2022/04/13 05:32:25;;;;;;;9.10;4.80;;;;;;;6.75;77.57;100676.31;104746;1274;75949;-73
2022/04/13 05:35:01;;;;;;;9.70;5.60;;;;;;;6.83;77.56;100675.63;104843;1274;72390;-68
2022/04/13 05:37:28;;;;;;;10.60;5.70;;;;;;;6.92;77.54;100678.80;104870;1274;72006;-69
2022/04/13 05:39:55;;;;;;;9.30;5.30;;;;;;;7.00;77.49;100681.04;104803;1274;63861;-70
2022/04/13 05:42:24;;;;;;;8.50;5.10;;;;;;;7.08;77.30;100691.65;104744;1274;61708;-70
2022/04/13 05:44:51;;;;;;;9.80;5.50;;;;;;;7.18;77.33;100693.48;104765;1274;74975;-73
2022/04/13 05:47:18;;;;;;;10.90;6.00;;;;;;;7.30;77.25;100697.58;104789;1275;71514;-73
2022/04/13 05:49:45;;;;;;;12.60;5.80;;;;;;;7.40;77.29;100694.98;104842;1274;74121;-70
2022/04/13 05:52:12;;;;;;;10.20;6.20;;;;;;;7.51;77.10;100703.36;104879;1274;61540;-71
2022/04/13 05:54:38;;;;;;;10.70;6.50;;;;;;;7.64;77.13;100710.52;104729;1274;61438;-73
2022/04/13 05:57:06;;;;;;;11.70;7.20;;;;;;;7.76;76.71;100712.95;104835;1274;76053;-71
2022/04/13 05:59:32;;;;;;;8.30;5.60;;;;;;;7.88;76.38;100715.13;104801;1275;71323;-72
2022/04/13 06:01:59;;;;;;;12.40;6.00;;;;;;;7.99;75.88;100719.80;104725;1274;61300;-72
2022/04/13 06:04:25;;;;;;;13.60;6.40;;;;;;;8.09;75.20;100718.25;104774;1275;62757;-72
2022/04/13 06:06:55;;;;;;;12.00;5.80;;;;;;;8.23;75.19;100716.66;104852;1276;61264;-70
2022/04/13 06:09:23;;;;;;;10.50;5.30;;;;;;;8.38;75.16;100719.48;104859;1274;76076;-69
2022/04/13 06:11:50;;;;;;;11.70;5.10;;;;;;;8.54;75.16;100720.80;104757;1275;72899;-72
2022/04/13 06:14:17;;;;;;;12.20;6.70;;;;;;;8.70;75.11;100725.17;104866;1274;72978;-70
2022/04/13 06:16:43;;;;;;;9.90;5.60;;;;;;;8.83;75.27;100729.43;104857;1274;62485;-69
2022/04/13 06:19:10;;;;;;;12.10;5.00;;;;;;;8.97;75.02;100732.77;104895;1274;61355;-69
2022/04/13 06:21:37;;;;;;;9.60;6.00;;;;;;;9.09;74.73;100731.11;104776;1274;75269;-69
2022/04/13 06:24:04;;;;;;;11.30;6.20;;;;;;;9.23;74.49;100738.77;104805;1274;72409;-71
2022/04/13 06:26:31;;;;;;;9.90;6.20;;;;;;;9.38;74.24;100741.39;104795;1274;73000;-71
2022/04/13 06:28:58;;;;;;;13.40;6.80;;;;;;;9.52;74.01;100745.48;104861;1274;62418;-72
2022/04/13 06:31:24;;;;;;;10.00;6.10;;;;;;;9.65;73.45;100749.41;104857;1274;61306;-71
2022/04/13 06:33:54;;;;;;;9.10;6.20;;;;;;;9.77;72.69;100758.20;104861;1274;75935;-69
2022/04/13 06:36:20;;;;;;;10.20;6.40;;;;;;;9.91;72.76;100757.21;104835;1274;72531;-70
2022/04/13 06:38:47;;;;;;;10.60;5.30;;;;;;;10.07;72.02;100757.38;104871;1274;72742;-76
2022/04/13 06:41:14;;;;;;;11.80;5.60;;;;;;;10.22;71.73;100758.29;104826;1274;61159;-73
2022/04/13 06:43:40;;;;;;;9.80;5.50;;;;;;;10.35;71.41;100760.27;104816;1274;61207;-74
2022/04/13 06:46:08;;;;;;;10.30;6.30;;;;;;;10.47;71.49;100763.86;104798;1274;75082;-71
2022/04/13 06:48:34;;;;;;;9.40;5.20;;;;;;;10.60;71.33;100765.98;104888;1274;72373;-73
2022/04/13 06:51:03;;;;;;;9.80;5.30;;;;;;;10.72;71.18;100763.49;104849;1274;72954;-69
2022/04/13 06:53:31;;;;;;;7.60;5.30;;;;;;;10.85;70.66;100760.52;104892;1275;63513;-70
2022/04/13 06:56:01;;;;;;;10.00;5.50;;;;;;;11.00;70.59;100769.01;104793;1275;61470;-71
2022/04/13 06:58:30;;;;;;;9.20;5.40;;;;;;;11.19;70.29;100770.25;104819;1274;75023;-72
2022/04/13 07:00:57;;;;;;;11.70;6.80;;;;;;;11.35;69.80;100767.30;104681;1276;71521;-72
2022/04/13 07:03:25;;;;;;;13.10;6.10;;;;;;;11.52;69.87;100768.36;104670;1275;72669;-71
2022/04/13 07:05:53;;;;;;;10.40;5.60;;;;;;;11.64;69.73;100770.14;104839;1274;64045;-73
2022/04/13 07:08:19;;;;;;;8.20;5.30;;;;;;;11.72;69.75;100771.30;104860;1274;61327;-71
2022/04/13 07:10:47;;;;;;;12.30;6.20;;;;;;;11.79;69.97;100774.86;104797;1274;73591;-74
2022/04/13 07:13:14;;;;;;;12.50;5.50;;;;;;;11.86;69.91;100771.59;104776;1274;71060;-72
2022/04/13 07:15:41;;;;;;;10.00;6.80;;;;;;;11.88;70.17;100778.30;104762;1274;72044;-72
2022/04/13 07:18:09;;;;;;;11.80;6.00;;;;;;;11.91;70.39;100774.08;104842;1274;62315;-69
2022/04/13 07:20:35;;;;;;;14.20;7.30;;;;;;;11.98;70.82;100774.70;104847;1274;61273;-71
2022/04/13 07:23:02;;;;;;;14.10;6.50;;;;;;;12.06;71.05;100772.86;104808;1274;75031;-72
2022/04/13 07:25:30;;;;;;;12.30;7.00;;;;;;;12.17;71.14;100778.26;104854;1274;72628;-68
2022/04/13 07:27:56;;;;;;;13.40;6.20;;;;;;;12.33;70.60;100774.88;104731;1275;72974;-72
2022/04/13 07:30:23;;;;;;;8.40;4.40;;;;;;;12.55;69.55;100774.87;104800;1274;61292;-71
2022/04/13 07:32:52;;;;;;;6.40;3.70;;;;;;;12.80;65.64;100778.80;104788;1274;61728;-71
2022/04/13 07:35:19;;;;;;;5.50;3.20;;;;;;;13.05;63.79;100779.78;104915;1275;75997;-73
2022/04/13 07:37:46;;;;;;;5.30;2.80;;;;;;;13.29;62.19;100776.83;104775;1274;72601;-73
2022/04/13 07:40:14;;;;;;;5.30;2.30;;;;;;;13.52;60.04;100775.98;104828;1273;74665;-73
2022/04/13 07:42:41;;;;;;;6.20;3.30;;;;;;;13.73;58.60;100775.16;104882;1274;61345;-72
2022/04/13 07:45:08;;;;;;;4.60;3.20;;;;;;;13.94;58.05;100781.25;104726;1275;61306;-72
2022/04/13 07:47:36;;;;;;;5.70;3.10;;;;;;;14.14;57.66;100782.08;104821;1275;73639;-73
2022/04/13 07:50:04;;;;;;;5.00;3.10;;;;;;;14.33;56.93;100784.77;104914;1274;72351;-72
2022/04/13 07:52:35;;;;;;;5.20;2.90;;;;;;;14.50;55.89;100785.52;104753;1275;73952;-72
2022/04/13 07:55:02;;;;;;;4.90;3.10;;;;;;;14.68;55.62;100782.58;104800;1274;61685;-72
2022/04/13 07:57:29;;;;;;;6.50;3.60;;;;;;;14.87;54.42;100787.00;104753;1274;61320;-73
2022/04/13 07:59:56;;;;;;;4.20;2.70;;;;;;;15.04;53.75;100784.95;104749;1274;61212;-73
2022/04/13 08:02:22;;;;;;;4.70;2.60;;;;;;;15.26;53.43;100788.86;104814;1274;72993;-72
2022/04/13 08:04:49;;;;;;;5.10;3.30;;;;;;;15.52;53.83;100796.30;104825;1274;72979;-73
2022/04/13 08:07:16;;;;;;;5.40;3.00;;;;;;;15.80;52.40;100790.79;104819;1274;61615;-74
2022/04/13 08:09:43;;;;;;;6.30;2.80;;;;;;;16.09;51.82;100792.20;104843;1274;61334;-72
2022/04/13 08:12:10;;;;;;;5.30;3.00;;;;;;;16.40;51.74;100792.20;104787;1274;76177;-72
2022/04/13 08:14:37;;;;;;;6.30;3.30;;;;;;;16.70;51.19;100798.15;104809;1274;71122;-74
2022/04/13 08:17:05;;;;;;;4.80;2.90;;;;;;;16.86;48.03;100801.23;104783;1274;73939;-71
2022/04/13 08:19:32;;;;;;;4.10;2.80;;;;;;;16.98;48.06;100806.36;104797;1274;61339;-72
2022/04/13 08:21:58;;;;;;;3.80;2.50;;;;;;;17.13;48.23;100805.83;104849;1274;62286;-72
2022/04/13 08:24:25;;;;;;;4.70;2.50;;;;;;;17.29;47.90;100809.11;104918;1274;73822;-73
2022/04/13 08:26:52;;;;;;;5.00;2.40;;;;;;;17.39;48.05;100807.48;104848;1274;61267;-73
2022/04/13 08:29:19;;;;;;;5.60;3.00;;;;;;;17.46;47.56;100810.06;104825;1274;61384;-74
2022/04/13 08:31:45;;;;;;;3.10;2.30;;;;;;;17.50;47.54;100812.23;104789;1274;61144;-73
2022/04/13 08:34:12;;;;;;;6.80;2.70;;;;;;;17.52;47.70;100818.85;104811;1274;62537;-73
2022/04/13 08:36:39;;;;;;;4.70;2.80;;;;;;;17.52;47.86;100817.81;104854;1274;61134;-71
2022/04/13 08:39:13;;;;;;;4.80;2.70;;;;;;;17.52;47.73;100821.81;104831;1274;71390;-73
2022/04/13 08:42:08;;;;;;;4.50;2.50;;;;;;;17.56;48.08;100823.11;104854;1274;72651;-73
2022/04/13 08:44:40;;;;;;;5.10;3.20;;;;;;;17.74;48.24;100828.05;104859;1274;62579;-73
2022/04/13 08:47:12;;;;;;;4.70;2.60;;;;;;;17.95;46.82;100829.10;104836;1274;61134;-74
2022/04/13 08:49:45;;;;;;;5.40;2.50;;;;;;;18.11;45.12;100818.95;104794;1274;76310;-72
2022/04/13 08:52:14;;;;;;;6.60;2.20;;;;;;;18.27;45.63;100818.74;104916;1274;72381;-72
2022/04/13 08:54:52;;;;;;;7.20;2.60;;;;;;;18.41;45.09;100821.64;104873;1274;74125;-73
2022/04/13 08:57:22;;;;;;;3.60;2.00;;;;;;;18.59;43.45;100820.20;104825;1274;61345;-74
2022/04/13 09:00:02;;;;;;;3.30;1.90;;;;;;;18.78;42.16;100820.66;104890;1274;61255;-72
2022/04/13 09:02:47;;;;;;;5.20;2.00;;;;;;;18.93;40.90;100819.23;104872;1274;75835;-73
2022/04/13 09:05:20;;;;;;;3.70;1.60;;;;;;;19.09;40.92;100818.67;104833;1274;72572;-74
2022/04/13 09:07:53;;;;;;;3.70;1.50;;;;;;;19.26;40.84;100819.64;104850;1274;72979;-73
2022/04/13 09:10:21;;;;;;;7.00;2.70;;;;;;;19.38;40.01;100818.94;104895;1274;61381;-75
2022/04/13 09:12:50;;;;;;;3.50;1.80;;;;;;;19.48;40.34;100820.85;105008;1274;61204;-75
2022/04/13 09:15:18;;;;;;;3.70;1.70;;;;;;;19.60;40.21;100820.45;104990;1275;76191;-73
2022/04/13 09:17:46;;;;;;;4.80;1.90;;;;;;;19.67;39.40;100821.29;104922;1274;71851;-70
2022/04/13 09:20:13;;;;;;;4.10;1.90;;;;;;;19.79;39.39;100819.33;104718;1274;73010;-72
2022/04/13 09:22:42;;;;;;;4.80;2.80;;;;;;;19.90;39.30;100822.80;104905;1274;61866;-73
2022/04/13 09:25:11;;;;;;;3.40;2.00;;;;;;;20.04;39.56;100822.42;104920;1275;61774;-73
2022/04/13 09:27:39;;;;;;;4.80;2.00;;;;;;;20.24;39.00;100824.76;104927;1274;74123;-72
2022/04/13 09:30:06;;;;;;;2.30;1.60;;;;;;;20.41;39.14;100827.76;104933;1274;71538;-74
2022/04/13 09:32:34;;;;;;;5.00;1.90;;;;;;;20.56;39.20;100830.41;104880;1274;73977;-73
2022/04/13 09:35:03;;;;;;;4.90;1.40;;;;;;;20.68;38.46;100833.26;104773;1275;61301;-73
2022/04/13 09:37:31;;;;;;;4.60;1.60;;;;;;;20.79;38.87;100834.73;104932;1274;61261;-72
2022/04/13 09:40:00;;;;;;;3.30;1.50;;;;;;;20.93;38.07;100839.46;104790;1274;76156;-73
2022/04/13 09:42:27;;;;;;;5.30;1.60;;;;;;;21.01;38.31;100840.82;104759;1274;72424;-74
2022/04/13 09:44:56;;;;;;;4.60;1.90;;;;;;;21.11;38.52;100844.87;104893;1274;73858;-73
2022/04/13 09:47:33;;;;;;;4.10;2.20;;;;;;;21.18;38.92;100844.67;104883;1274;61698;-70
2022/04/13 09:50:00;;;;;;;5.20;2.00;;;;;;;21.22;38.12;100840.98;104862;1274;61863;-72
2022/04/13 09:52:55;;;;;;;5.30;2.10;;;;;;;21.22;38.35;100843.52;104826;1274;76125;-74
2022/04/13 09:55:22;;;;;;;5.60;2.40;;;;;;;21.26;38.58;100836.41;104842;1274;71364;-73
2022/04/13 09:57:49;;;;;;;4.40;1.70;;;;;;;21.33;39.09;100841.34;104828;1274;72526;-72
2022/04/13 10:00:17;;;;;;;7.90;2.10;;;;;;;21.40;38.51;100845.39;104923;1274;61279;-75
2022/04/13 10:02:44;;;;;;;6.60;2.60;;;;;;;21.45;38.07;100843.35;104820;1274;61298;-73
2022/04/13 10:05:14;;;;;;;5.50;2.10;;;;;;;21.56;38.26;100839.06;104861;1274;75326;-74
2022/04/13 10:07:41;;;;;;;5.20;2.20;;;;;;;21.69;38.25;100840.08;104933;1274;71381;-73
2022/04/13 10:10:24;;;;;;;9.00;2.40;;;;;;;21.80;38.23;100839.01;104726;1277;73008;-74
2022/04/13 10:12:53;;;;;;;11.10;3.10;;;;;;;21.92;37.98;100837.27;104834;1274;61347;-73
2022/04/13 10:15:20;;;;;;;5.90;2.00;;;;;;;22.07;38.06;100839.78;104830;1274;61264;-76
2022/04/13 10:17:47;;;;;;;5.60;2.80;;;;;;;22.17;37.84;100837.19;104842;1274;76054;-73
2022/04/13 10:20:14;;;;;;;4.90;2.70;;;;;;;22.21;37.35;100836.48;104743;1274;71306;-75
2022/04/13 10:23:01;;;;;;;6.40;2.60;;;;;;;22.21;36.95;100835.19;104821;1274;73033;-74
2022/04/13 10:25:28;;;;;;;6.00;2.60;;;;;;;22.12;36.93;100835.29;104866;1274;61643;-73
2022/04/13 10:28:00;;;;;;;5.90;1.90;;;;;;;22.13;37.13;100838.59;104826;1274;61227;-73
2022/04/13 10:30:33;;;;;;;5.30;2.50;;;;;;;22.15;37.23;100834.89;104870;1274;75905;-73
2022/04/13 10:33:06;;;;;;;4.50;2.40;;;;;;;22.24;37.32;100835.91;104735;1275;71642;-75
2022/04/13 10:35:39;;;;;;;7.90;2.70;;;;;;;22.28;36.94;100834.61;104859;1274;73950;-74
2022/04/13 10:38:07;;;;;;;8.80;2.30;;;;;;;22.31;36.97;100833.14;104830;1274;61300;-73
2022/04/13 10:40:39;;;;;;;5.70;2.20;;;;;;;22.41;37.07;100832.14;104807;1274;62374;-73
2022/04/13 10:43:09;;;;;;;5.70;2.10;;;;;;;22.51;36.70;100831.67;104884;1274;76150;-74
2022/04/13 10:45:39;;;;;;;5.30;2.40;;;;;;;22.59;37.12;100833.55;104892;1274;72383;-74
2022/04/13 10:48:07;;;;;;;5.80;2.40;;;;;;;22.70;36.97;100834.77;104837;1274;71846;-74
2022/04/13 10:50:38;;;;;;;8.90;2.40;;;;;;;22.88;37.73;100839.47;104835;1274;61436;-70
2022/04/13 10:53:25;;;;;;;6.60;2.30;;;;;;;23.06;37.06;100834.17;104851;1274;61408;-73
2022/04/13 10:56:03;;;;;;;4.30;2.00;;;;;;;23.22;37.60;100834.55;104864;1274;75048;-73
2022/04/13 10:58:58;;;;;;;6.20;2.40;;;;;;;23.41;37.19;100836.45;104810;1274;72422;-73
2022/04/13 11:01:30;;;;;;;6.00;2.80;;;;;;;23.63;36.12;100837.67;104860;1276;72941;-73
2022/04/13 11:03:58;;;;;;;5.10;2.40;;;;;;;23.78;35.64;100835.53;104887;1274;61371;-71
2022/04/13 11:06:24;;;;;;;7.90;3.50;;;;;;;23.84;35.77;100842.08;104858;1274;61246;-73
2022/04/13 11:09:02;;;;;;;5.20;2.20;;;;;;;23.85;35.17;100838.14;104817;1274;74999;-74
2022/04/13 11:11:31;;;;;;;5.20;2.90;;;;;;;23.88;35.13;100839.95;104864;1274;72351;-73
2022/04/13 11:13:58;;;;;;;6.00;2.30;;;;;;;23.89;34.94;100837.84;104729;1277;73997;-72
2022/04/13 11:16:27;;;;;;;5.60;2.70;;;;;;;23.98;35.11;100841.71;104837;1274;61227;-73
2022/04/13 11:19:06;;;;;;;7.10;2.50;;;;;;;24.11;35.10;100840.52;104854;1275;61349;-74
2022/04/13 11:21:35;;;;;;;7.30;2.90;;;;;;;24.22;34.45;100842.60;104791;1274;75962;-73
2022/04/13 11:24:01;;;;;;;4.60;2.50;;;;;;;24.30;34.41;100842.98;104908;1275;72682;-74
2022/04/13 11:26:34;;;;;;;7.40;2.90;;;;;;;24.38;35.64;100840.63;104805;1274;74061;-73